Little Current, Canada
Current Conditions -  °F | °C
As of 4:00 PM on Thursday 18 Dec 2014 (Local Time) from CYZE Reporting Station
Clear Clear  
Wind Chill: 17°   Ceiling: Unl
Heat Index: 25°   Visibility: 9mi
Dew Point: 12°   Wind: 7mph
Humidity: 59%   Direction: 10°N
Pressure: 30.17"   Gusts: NA
Location:  45.97°N, 81.93°W
Report Text: CYZE 182100Z AUTO 01006KT 9SM CLR M04/M11 A3017 RMK ICG INTMT SLP229
Loading
Personal Weather Stations






























Interactive Weather Map New forecast layout! Learn more

10-Day Weather Forecast

Advertisements
Track Severe Weather on mobile